Visit the IPS Meteostar Home Page 2IPSM Phoenix Sky Harbor International Airport FORECAST

Phoenix, Arizona

2 miles away at Phoenix Sky Harbor International Airport 16:51 GMT

Weather:

Mostly Cloudy

Wind:

SE 8 mph

Temperature:

70 ° F

Pressure:

29.96

Dew Point:

30 ° F

Relative Humidity:

22

Feels Like:

70 ° F

Visibility:

10 miles


Aviation Observations:

KPHX 171651Z 13007KT 10SM FEW100 SCT120 BKN150 BKN250 21/M01 A2998 RMK AO2 SLP139 VIRGA DSNT E T02111011 =

National Weather Service Forecast:
Greater Phoenix Area


Visit the IPS Meteostar Home Page